Financial Plaza, Florida
Current Conditions -  °F | °C
As of 5:53 PM on Saturday 25 Oct 2014 (Local Time) from KFLL Reporting Station
Few Clouds Few Clouds  
Wind Chill: 80°   Ceiling: Unl
Heat Index: 81°   Visibility: 10mi
Dew Point: 61°   Wind: 12mph
Humidity: 52%   Direction: 40°NE
Pressure: 29.88"   Gusts: NA
Location:  26.1179°N, 80.1441°W
Report Text: KFLL 252153Z 04010KT 10SM FEW045 FEW300 27/16 A2988 RMK AO2 SLP118 T02670161
Loading
Personal Weather Stations






























Interactive Weather Map
Tropical Storm Tracking
New forecast layout! Learn more

10-Day Weather Forecast

Advertisements
Track Severe Weather on mobile